Delta Virtual Airport Information Service

Rio de Janeiro Santos Dumont

ICAO: SBRJ Country: Brazil
Latitude: -22.9104 Longitude: -43.1631
Latest Arrival : AZA4850 (SBSP-SBRJ) Latest Departure : AZA4851 (SBRJ-SBSP)


WX CaptureLIVE
Data provided by noaa.gov | Fetched at 00:56:52

METAR : SBRJ 250200Z VRB02KT 9999 FEW010 SCT025 BKN080 20/18 Q1015

TAF : SBRJ 242100Z 2500/2512 23005KT 9999 BKN030 TX18/2500Z TN17/2508Z PROB40 TEMPO 2500/2502 8000 RA BKN008 BKN020 BECMG 2504/2506 31005KT SCT006 BKN020 PROB40 2506/2511 2000 BR BKN004 RMK PDJ


Runway Data for SBRJ
Data provided by openaviationdata.com

Runway ID Mag Var Hdg Length Elevation Surface ILS Freq ILS Id ILS Slope
02L -22 18° 4156 ft 11 ft Asphalt -- -- --
02R -22 18° 4364 ft 11 ft Asphalt -- -- --
20L -22 198° 4364 ft 11 ft Asphalt 111.1 IRJ 0
20R -22 198° 4156 ft 11 ft Asphalt -- -- --

Rio de Janeiro Santos Dumont, Brazil
Use only for reference purposes



Not for navigational purposes.